首页
METAR-TAF:

METAR-TAF

机场 :

Schaffen

迪斯特, 比利时

纬度: 51-00N, 经度: 005-04E, 海拔: 30米

当前天气观测

该预报发布于16分钟前的19:25 UTC
风速4节,风向南转西南
温度 13°C
湿度 88%
气压 1008 hPa
能见度10公里或以上

METAR: EBDT 151925Z AUTO 21004KT 9999 BKN065/// OVC080/// 13/11 Q1008 BLU

时间: 21:41 (19:41 UTC)

预报

该预报发布于28小时和0分钟前的15:41 UTC
预报有效从14日的 19点(UTC)到 15日的 07点(UTC)
风速6节,风向东南
能见度10公里或以上
少量云层高于1500英尺
多云层高于11000英尺
成为
从 15日的 01点(UTC)到 15日的 03点(UTC)
风速9节,风向南转西南
散云层高于2000英尺
多云层高于9000英尺
成为
从 15日的 04点(UTC)到 15日的 06点(UTC)
风速5节,风向
能見度: 8000
多云层高于1800英尺
阴天层高于6000英尺
小雨

TAF: EBDT 141541Z 1419/1507 14006KT 9999 FEW015 BKN110 BECMG 1501/1503 20009KT SCT020 BKN090 BECMG 1504/1506 36005KT 8000 -RA BKN018 OVC060

超过4000个机场的气象观测和天气预报(METAR&TAF报告)。

可查询的气象台以黄色和红色小点在地图上表示。

将鼠标移到小点上方,可查看气象台名称。

然后点击查看天气观测和预报。

如需切换地图:点击带黑十字的绿色按钮放大地图;点击带横线的绿色按钮缩小地图;或者点击绿色箭头查看邻近地区的地图。


METAR-TAF: